Godman Army Air Field
KFTK : now visible

Airfield :











YOU CAN JOIN US ON...

 
LOGIN :

Register | Disclaimer

   EN    FR    IT 

 









Legend :    VFR   Marginal VFR   IFR   Intensive IFR   Very Intensive IFR
Visi :
Ceiling :
>= 8 km
>= 3000ft
5 to 8 km
1000 to 3000 ft
1500m to 5 km
500 to 1000 ft
800 to 1500m
200 to 500 ft
< 800m
< 200 ft
Symbols :   Thunderstorms  Fog  Heavy snow  Heavy precipitations  Wind > 20 kt






- Airport Elevation : 756 ft


KFTK - Godman Army Air Field

CURRENT METAR :
  • 070336Z AUTO 21010KT 7SM -RA BKN010 BKN016 OVC023 17/17 A2998 RMK AO2 RAB0255E10DZB10E11RAB11 CIG 008V010 SLP153 FZRANO $

EXPIRED METARs :
  • 070256Z AUTO 17007KT 10SM -RA BKN008 BKN031 17/17 A2997 RMK AO2 RAB55 CIG 006V008 SLP150 FZRANO $
  • 070246Z AUTO 18005KT 10SM BKN008 BKN031 OVC040 17/17 A2997 RMK AO2 DZB09E17RAB17E27DZB27E30RAB30E45 TSB27E45 CIG 006V010 SLP150 FZRANO $
  • 070227Z AUTO 18007KT 9SM -TSRA BKN005 BKN010 OVC040 17/16 A2996 RMK AO2 DZB09E17RAB17 TSB27 SLP147 FZRANO $
  • 070155Z AUTO 20009G25KT 10SM BKN004 BKN010 17/17 A2996 RMK AO2 RAE20DZB20E22 TSE02 BKN004 V OVC SLP147 P0024 T01670165 FZRANO $
  • 070209Z AUTO 20009KT 10SM -DZ BKN006 BKN010 OVC033 17/17 A2997 RMK AO2 DZB09 CIG 004V006 SLP150 FZRANO $
  • 070204Z AUTO 19010KT 10SM BKN006 OVC010 17/17 A2996 RMK AO2 CIG 004V006 SLP147 FZRANO $
  • 070148Z AUTO 16012G25KT 10SM BKN004 17/16 A2996 RMK AO2 WSHFT 44 RAE20DZB20E22 TSE02 BKN V OVC SLP147 FZRANO $
  • 070124Z AUTO 23010KT 10SM OVC004 16/16 A2996 RMK AO2 WSHFT 21 RAE20DZB20E22 TSE02 SLP148 FZRANO $
  • 070121Z AUTO 18015KT 10SM -DZ OVC004 16/16 A2995 RMK AO2 WSHFT 13 RAE20DZB20 TSE02 SLP144 FZRANO $
  • 070107Z AUTO 14009KT 2SM VCTS +RA BR OVC004 16/16 A2994 RMK AO2 VIS 2V3 TSE02 PRESFR SLP141 FZRANO $
  • 070055Z AUTO 16009KT 5SM +TSRA BR OVC004 16/16 A2995 RMK AO2 RAB38 TSB47 SLP144 P0005 T01590157 FZRANO $
  • 070047Z AUTO 16009KT 8SM -TSRA OVC004 16/16 A2996 RMK AO2 RAB38 TSB47 SLP148 FZRANO $

TAF TAF KFTK
Valid from the 06 at 20:00 until the 08 at 02:00 UTC


062000Z 0620/0802 20008KT 9999 VCSH OVC005 QNH2994INS
BECMG 0701/0702 17009KT 4800 -SHRA BR OVC004 QNH2996INS
TEMPO 0702/0706 1600 TSRA OVC003CB
BECMG 0706/0707 21009KT 3200 -DZ BR OVC003 QNH3000INS
BECMG 0711/0712 27008KT 4800 -DZ BR OVC004 QNH3008INS
BECMG 0717/0718 28007KT 9000 BR BKN006 OVC015 QNH3017INS
BECMG 0722/0723 32006KT 9999 NSW BKN012 OVC020 QNH3021INS TX16/0703Z TN12/0714Z LAST NO AMDS AFT 0704 NEXT 0712
KZID FIR / North America



MET'MAP, your aeronautical weather chart ! - Copyright ORBIFLY December 2007 - Disclaimer

ORBIFLY MET'MAP TEAM :

Programming & Development : Alexandra Zaïnal
Original concept : Baudouin d'Aumeries
Technical & hardware support : Manuel Goepfert
Assistance : Marc-Olivier Méhu




SOURCES & CREDITS :

   NOAA       Earth
Advisory